createdAt,value
2017-06-14T00:01:13.017Z,15.21
2017-06-14T00:02:14.902Z,15.23
2017-06-14T00:03:16.779Z,15.28
2017-06-14T00:04:18.645Z,15.20
2017-06-14T00:05:20.463Z,15.20
2017-06-14T00:06:22.275Z,15.10
2017-06-14T00:07:24.137Z,15.11
2017-06-14T00:08:25.997Z,15.03
2017-06-14T00:09:27.875Z,15.03
2017-06-14T00:10:42.053Z,15.10
2017-06-14T00:11:43.914Z,14.98
2017-06-14T00:12:45.794Z,14.99
2017-06-14T00:13:47.676Z,15.01
2017-06-14T00:14:49.477Z,14.96
2017-06-14T00:15:51.291Z,14.98
2017-06-14T00:16:53.148Z,15.03
2017-06-14T00:17:55.008Z,14.91
2017-06-14T00:18:56.867Z,14.92
2017-06-14T00:20:11.004Z,14.99
2017-06-14T00:21:12.883Z,15.01
2017-06-14T00:22:14.740Z,14.91
2017-06-14T00:23:16.598Z,15.01
2017-06-14T00:24:18.391Z,14.95
2017-06-14T00:25:20.187Z,15.01
2017-06-14T00:26:22.056Z,15.06
2017-06-14T00:27:23.914Z,14.98
2017-06-14T00:28:25.774Z,14.95
2017-06-14T00:29:39.954Z,14.86
2017-06-14T00:30:41.816Z,14.84
2017-06-14T00:31:43.691Z,14.80
2017-06-14T00:32:45.553Z,14.92
2017-06-14T00:33:47.374Z,14.99
2017-06-14T00:34:49.192Z,14.91
2017-06-14T00:35:51.075Z,14.88
2017-06-14T00:36:52.950Z,14.95
2017-06-14T00:37:54.829Z,14.91
2017-06-14T00:39:09.007Z,14.98
2017-06-14T00:40:10.868Z,14.94
2017-06-14T00:41:12.751Z,14.98
2017-06-14T00:42:14.633Z,14.95
2017-06-14T00:43:16.433Z,14.89
2017-06-14T00:44:18.250Z,14.83
2017-06-14T00:45:20.132Z,14.88
2017-06-14T00:46:22.016Z,14.89
2017-06-14T00:47:23.890Z,14.86
2017-06-14T00:48:38.022Z,14.98
2017-06-14T00:49:39.886Z,14.89
2017-06-14T00:50:41.768Z,14.92
2017-06-14T00:51:43.627Z,14.86
2017-06-14T00:52:45.444Z,14.83
2017-06-14T00:53:47.263Z,14.89
2017-06-14T00:54:49.144Z,14.88
2017-06-14T00:55:51.025Z,14.81
2017-06-14T00:56:52.887Z,14.88
2017-06-14T00:58:07.020Z,14.80
2017-06-14T00:59:08.897Z,14.81
2017-06-14T01:00:10.774Z,14.78
2017-06-14T01:01:12.629Z,14.84
2017-06-14T01:02:14.418Z,14.73
2017-06-14T01:03:16.234Z,14.78
2017-06-14T01:04:18.097Z,14.83
2017-06-14T01:05:19.956Z,14.80
2017-06-14T01:06:21.806Z,14.72
2017-06-14T01:07:35.936Z,14.72
2017-06-14T01:08:37.793Z,14.58
2017-06-14T01:09:39.660Z,14.61
2017-06-14T01:10:41.511Z,14.64
2017-06-14T01:11:43.294Z,14.60
2017-06-14T01:12:45.092Z,14.64
2017-06-14T01:13:46.952Z,14.61
2017-06-14T01:14:48.809Z,14.62
2017-06-14T01:15:50.654Z,14.60
2017-06-14T01:17:04.779Z,14.62
2017-06-14T01:18:06.636Z,14.62
2017-06-14T01:19:08.498Z,14.58
2017-06-14T01:20:10.353Z,14.58
2017-06-14T01:21:12.161Z,14.52
2017-06-14T01:22:13.945Z,14.57
2017-06-14T01:23:15.793Z,14.55
2017-06-14T01:24:17.651Z,14.50
2017-06-14T01:25:19.517Z,14.47
2017-06-14T01:26:33.643Z,14.54
2017-06-14T01:27:35.515Z,14.50
2017-06-14T01:28:37.358Z,14.51
2017-06-14T01:29:39.214Z,14.47
2017-06-14T01:30:41.002Z,14.52
2017-06-14T01:31:42.807Z,14.55
2017-06-14T01:32:44.678Z,14.46
2017-06-14T01:33:46.551Z,14.43
2017-06-14T01:34:48.394Z,14.45
2017-06-14T01:36:02.532Z,14.47
2017-06-14T01:37:04.385Z,14.42
2017-06-14T01:38:06.261Z,14.47
2017-06-14T01:39:08.109Z,14.45
2017-06-14T01:40:09.897Z,14.39
2017-06-14T01:41:11.693Z,14.29
2017-06-14T01:42:13.560Z,14.29
2017-06-14T01:43:15.418Z,14.45
2017-06-14T01:44:17.282Z,14.37
2017-06-14T01:45:31.412Z,14.37
2017-06-14T01:46:33.268Z,14.37
2017-06-14T01:47:35.134Z,14.36
2017-06-14T01:48:36.997Z,14.40
2017-06-14T01:49:38.788Z,14.39
2017-06-14T01:50:40.600Z,14.35
2017-06-14T01:51:42.453Z,14.33
2017-06-14T01:52:44.309Z,14.40
2017-06-14T01:53:46.181Z,14.36
2017-06-14T01:55:00.325Z,14.27
2017-06-14T01:56:02.192Z,14.24
2017-06-14T01:57:04.046Z,14.29
2017-06-14T01:58:05.917Z,14.12
2017-06-14T01:59:07.710Z,14.27
2017-06-14T02:00:09.520Z,14.10
2017-06-14T02:01:11.375Z,14.18
2017-06-14T02:02:13.245Z,14.14
2017-06-14T02:03:15.112Z,14.15
2017-06-14T02:04:29.251Z,14.07
2017-06-14T02:05:31.108Z,14.10
2017-06-14T02:06:32.959Z,14.12
2017-06-14T02:07:34.814Z,14.09
2017-06-14T02:08:36.617Z,14.10
2017-06-14T02:09:38.410Z,14.12
2017-06-14T02:10:40.275Z,14.07
2017-06-14T02:11:42.127Z,14.07
2017-06-14T02:12:43.983Z,14.02
2017-06-14T02:13:58.113Z,13.97
2017-06-14T02:14:59.986Z,14.00
2017-06-14T02:16:01.862Z,13.92
2017-06-14T02:17:03.729Z,14.06
2017-06-14T02:18:05.539Z,14.02
2017-06-14T02:19:07.322Z,14.03
2017-06-14T02:20:09.181Z,14.03
2017-06-14T02:21:11.056Z,13.99
2017-06-14T02:22:12.926Z,13.97
2017-06-14T02:23:27.067Z,13.96
2017-06-14T02:24:28.925Z,13.99
2017-06-14T02:25:30.775Z,13.96
2017-06-14T02:26:32.632Z,13.99
2017-06-14T02:27:34.417Z,14.00
2017-06-14T02:28:36.219Z,13.92
2017-06-14T02:29:38.078Z,13.95
2017-06-14T02:30:39.950Z,13.88
2017-06-14T02:31:41.820Z,13.95
2017-06-14T02:32:55.961Z,13.92
2017-06-14T02:33:57.822Z,13.96
2017-06-14T02:34:59.691Z,13.89
2017-06-14T02:36:01.552Z,13.97
2017-06-14T02:37:03.345Z,13.89
2017-06-14T02:38:05.158Z,13.92
2017-06-14T02:39:07.032Z,13.96
2017-06-14T02:40:08.888Z,13.87
2017-06-14T02:41:10.757Z,13.84
2017-06-14T02:42:24.942Z,13.88
2017-06-14T02:43:26.794Z,13.79
2017-06-14T02:44:28.648Z,13.85
2017-06-14T02:45:30.522Z,13.84
2017-06-14T02:46:32.315Z,13.77
2017-06-14T02:47:34.115Z,13.79
2017-06-14T02:48:35.990Z,13.78
2017-06-14T02:49:37.865Z,13.69
2017-06-14T02:50:39.717Z,13.70
2017-06-14T02:51:53.895Z,13.71
2017-06-14T02:52:55.752Z,13.79
2017-06-14T02:53:57.624Z,13.71
2017-06-14T02:54:59.499Z,13.84
2017-06-14T02:56:01.314Z,13.95
2017-06-14T02:57:03.122Z,13.95
2017-06-14T02:58:04.986Z,14.07
2017-06-14T02:59:06.854Z,14.09
2017-06-14T03:00:08.706Z,14.18
2017-06-14T03:01:22.840Z,14.07
2017-06-14T03:02:24.698Z,14.09
2017-06-14T03:03:26.570Z,14.14
2017-06-14T03:04:28.426Z,14.06
2017-06-14T03:05:30.229Z,14.22
2017-06-14T03:06:32.039Z,14.21
2017-06-14T03:07:33.897Z,14.22
2017-06-14T03:08:35.773Z,14.32
2017-06-14T03:09:37.644Z,14.35
2017-06-14T03:10:51.795Z,14.40
2017-06-14T03:11:53.670Z,14.46
2017-06-14T03:12:55.538Z,14.51
2017-06-14T03:13:57.401Z,14.57
2017-06-14T03:14:59.216Z,14.45
2017-06-14T03:16:01.037Z,14.47
2017-06-14T03:17:02.846Z,14.47
2017-06-14T03:18:04.686Z,14.54
2017-06-14T03:19:06.499Z,14.54
2017-06-14T03:20:20.649Z,14.54
2017-06-14T03:21:22.524Z,14.60
2017-06-14T03:22:24.385Z,14.77
2017-06-14T03:23:26.237Z,14.78
2017-06-14T03:24:28.039Z,15.03
2017-06-14T03:25:29.856Z,15.19
2017-06-14T03:26:31.732Z,15.34
2017-06-14T03:27:33.588Z,15.43
2017-06-14T03:28:35.468Z,15.38
2017-06-14T03:29:49.663Z,15.44
2017-06-14T03:30:51.522Z,15.46
2017-06-14T03:31:53.382Z,15.36
2017-06-14T03:32:55.242Z,15.49
2017-06-14T03:33:57.057Z,15.51
2017-06-14T03:34:58.875Z,15.62
2017-06-14T03:36:00.751Z,15.78
2017-06-14T03:37:02.625Z,15.84
2017-06-14T03:38:04.482Z,15.89
2017-06-14T03:39:18.615Z,16.01
2017-06-14T03:40:20.475Z,15.97
2017-06-14T03:41:22.339Z,16.01
2017-06-14T03:42:24.217Z,15.96
2017-06-14T03:43:26.013Z,16.04
2017-06-14T03:44:27.813Z,16.01
2017-06-14T03:45:29.671Z,16.02
2017-06-14T03:46:31.537Z,16.04
2017-06-14T03:47:33.398Z,16.24
2017-06-14T03:48:47.546Z,16.48
2017-06-14T03:49:49.407Z,16.76
2017-06-14T03:50:51.287Z,16.98
2017-06-14T03:51:53.161Z,17.26
2017-06-14T03:52:54.961Z,17.68
2017-06-14T03:53:56.782Z,17.95
2017-06-14T03:54:58.656Z,18.20
2017-06-14T03:56:00.509Z,18.25
2017-06-14T03:57:02.373Z,18.21
2017-06-14T03:58:16.509Z,18.12
2017-06-14T03:59:18.377Z,17.92
2017-06-14T04:00:20.238Z,17.87
2017-06-14T04:01:22.100Z,17.77
2017-06-14T04:02:23.904Z,17.72
2017-06-14T04:03:25.718Z,17.71
2017-06-14T04:04:27.596Z,17.70
2017-06-14T04:05:29.452Z,17.86
2017-06-14T04:06:31.329Z,17.87
2017-06-14T04:07:45.463Z,17.96
2017-06-14T04:08:47.323Z,18.05
2017-06-14T04:09:49.185Z,18.17
2017-06-14T04:10:51.043Z,18.27
2017-06-14T04:11:52.838Z,18.44
2017-06-14T04:12:54.642Z,18.44
2017-06-14T04:13:56.522Z,18.55
2017-06-14T04:14:58.386Z,18.57
2017-06-14T04:16:00.246Z,18.72
2017-06-14T04:17:14.400Z,18.82
2017-06-14T04:18:16.260Z,18.85
2017-06-14T04:19:18.117Z,18.85
2017-06-14T04:20:19.977Z,18.95
2017-06-14T04:21:21.777Z,19.13
2017-06-14T04:22:23.584Z,19.41
2017-06-14T04:23:25.459Z,19.86
2017-06-14T04:24:27.345Z,20.29
2017-06-14T04:25:29.220Z,20.67
2017-06-14T04:26:43.377Z,21.10
2017-06-14T04:27:45.249Z,21.46
2017-06-14T04:28:47.116Z,21.77
2017-06-14T04:29:48.984Z,21.98
2017-06-14T04:30:50.777Z,22.15
2017-06-14T04:31:52.600Z,22.35
2017-06-14T04:32:54.471Z,22.49
2017-06-14T04:33:56.333Z,22.58
2017-06-14T04:34:58.212Z,22.68
2017-06-14T04:36:12.345Z,22.82
2017-06-14T04:37:14.214Z,22.83
2017-06-14T04:38:16.098Z,22.72
2017-06-14T04:39:17.981Z,22.77
2017-06-14T04:40:19.798Z,22.73
2017-06-14T04:41:21.607Z,22.54
2017-06-14T04:42:23.486Z,22.75
2017-06-14T04:43:25.345Z,22.73
2017-06-14T04:44:27.213Z,22.75
2017-06-14T04:45:41.369Z,22.94
2017-06-14T04:46:43.234Z,23.04
2017-06-14T04:47:45.099Z,23.09
2017-06-14T04:48:46.966Z,22.80
2017-06-14T04:49:48.789Z,22.37
2017-06-14T04:50:50.603Z,22.18
2017-06-14T04:51:52.473Z,21.83
2017-06-14T04:52:54.331Z,21.61
2017-06-14T04:53:56.191Z,21.13
2017-06-14T04:55:10.326Z,20.88
2017-06-14T04:56:12.198Z,20.54
2017-06-14T04:57:14.078Z,20.23
2017-06-14T04:58:15.962Z,19.99
2017-06-14T04:59:17.762Z,19.80
2017-06-14T05:00:19.583Z,19.71
2017-06-14T05:01:21.465Z,19.66
2017-06-14T05:02:23.328Z,19.59
2017-06-14T05:03:25.207Z,19.65
2017-06-14T05:04:39.364Z,19.47
2017-06-14T05:05:41.236Z,19.56
2017-06-14T05:06:43.101Z,19.74
2017-06-14T05:07:44.960Z,19.86
2017-06-14T05:08:46.760Z,20.01
2017-06-14T05:09:48.560Z,20.16
2017-06-14T05:10:50.424Z,20.11
2017-06-14T05:11:52.295Z,20.24
2017-06-14T05:12:54.164Z,20.21
2017-06-14T05:14:08.314Z,20.31
2017-06-14T05:15:10.176Z,20.54
2017-06-14T05:16:12.049Z,20.58
2017-06-14T05:17:13.929Z,20.55
2017-06-14T05:18:15.745Z,20.57
2017-06-14T05:19:17.545Z,20.61
2017-06-14T05:20:19.414Z,20.89
2017-06-14T05:21:21.280Z,20.99
2017-06-14T05:22:23.160Z,21.27
2017-06-14T05:23:37.317Z,21.50
2017-06-14T05:24:39.197Z,21.64
2017-06-14T05:25:41.070Z,21.83
2017-06-14T05:26:42.943Z,21.91
2017-06-14T05:27:44.741Z,22.03
2017-06-14T05:28:46.563Z,22.09
2017-06-14T05:29:48.445Z,22.06
2017-06-14T05:30:50.328Z,21.82
2017-06-14T05:31:52.192Z,21.72
2017-06-14T05:33:06.350Z,21.58
2017-06-14T05:34:08.211Z,21.65
2017-06-14T05:35:10.075Z,21.69
2017-06-14T05:36:11.941Z,21.69
2017-06-14T05:37:13.764Z,21.74
2017-06-14T05:38:15.563Z,21.50
2017-06-14T05:39:17.427Z,21.22
2017-06-14T05:40:19.299Z,20.97
2017-06-14T05:41:21.176Z,20.72
2017-06-14T05:42:35.323Z,20.35
2017-06-14T05:43:37.195Z,20.13
2017-06-14T05:44:39.062Z,19.74
2017-06-14T05:45:40.947Z,19.55
2017-06-14T05:46:42.744Z,19.44
2017-06-14T05:47:44.566Z,19.44
2017-06-14T05:48:46.447Z,19.29
2017-06-14T05:49:48.331Z,19.18
2017-06-14T05:50:50.189Z,19.11
2017-06-14T05:52:04.326Z,19.02
2017-06-14T05:53:06.208Z,18.92
2017-06-14T05:54:08.092Z,18.90
2017-06-14T05:55:09.971Z,18.80
2017-06-14T05:56:11.775Z,18.73
2017-06-14T05:57:13.579Z,18.78
2017-06-14T05:58:15.443Z,18.76
2017-06-14T05:59:17.316Z,18.67
2017-06-14T06:00:19.201Z,18.21
2017-06-14T06:01:33.365Z,17.95
2017-06-14T06:02:35.236Z,17.66
2017-06-14T06:03:37.105Z,17.63
2017-06-14T06:04:39.001Z,17.51
2017-06-14T06:05:40.827Z,17.56
2017-06-14T06:06:42.641Z,17.59
2017-06-14T06:07:44.535Z,17.68
2017-06-14T06:08:46.424Z,17.70
2017-06-14T06:09:48.296Z,17.78
2017-06-14T06:11:02.441Z,17.84
2017-06-14T06:12:04.310Z,17.81
2017-06-14T06:13:06.175Z,17.70
2017-06-14T06:14:08.045Z,17.84
2017-06-14T06:15:09.848Z,17.78
2017-06-14T06:16:11.655Z,17.81
2017-06-14T06:17:13.526Z,17.92
2017-06-14T06:18:15.422Z,17.90
2017-06-14T06:19:17.286Z,17.86
2017-06-14T06:20:31.453Z,17.89
2017-06-14T06:21:33.310Z,17.90
2017-06-14T06:22:35.198Z,18.02
2017-06-14T06:23:37.073Z,18.02
2017-06-14T06:24:38.898Z,18.08
2017-06-14T06:25:40.707Z,18.02
2017-06-14T06:26:42.585Z,18.02
2017-06-14T06:27:44.455Z,18.10
2017-06-14T06:28:46.342Z,18.25
2017-06-14T06:30:00.487Z,18.25
2017-06-14T06:31:02.375Z,18.21
2017-06-14T06:32:04.260Z,18.18
2017-06-14T06:33:06.130Z,18.37
2017-06-14T06:34:07.959Z,18.41
2017-06-14T06:35:09.793Z,18.60
2017-06-14T06:36:11.681Z,18.76
2017-06-14T06:37:13.573Z,18.92
2017-06-14T06:38:15.436Z,19.10
2017-06-14T06:39:29.578Z,18.95
2017-06-14T06:40:31.462Z,18.91
2017-06-14T06:41:33.340Z,18.87
2017-06-14T06:42:35.238Z,18.80
2017-06-14T06:43:37.060Z,18.81
2017-06-14T06:44:38.889Z,18.65
2017-06-14T06:45:40.760Z,18.51
2017-06-14T06:46:42.644Z,18.45
2017-06-14T06:47:44.512Z,18.32
2017-06-14T06:48:58.636Z,18.15
2017-06-14T06:50:00.461Z,18.17
2017-06-14T06:51:02.270Z,18.17
2017-06-14T06:52:04.068Z,18.14
2017-06-14T06:53:05.931Z,18.10
2017-06-14T06:54:07.816Z,18.05
2017-06-14T06:55:09.680Z,18.18
2017-06-14T06:56:11.500Z,18.29
2017-06-14T06:57:13.331Z,18.48
2017-06-14T06:58:27.474Z,18.50
2017-06-14T06:59:29.338Z,18.39
2017-06-14T07:00:31.227Z,18.27
2017-06-14T07:01:33.089Z,18.20
2017-06-14T07:02:34.900Z,18.12
2017-06-14T07:03:36.728Z,18.11
2017-06-14T07:04:38.595Z,18.15
2017-06-14T07:05:40.461Z,18.14
2017-06-14T07:06:42.329Z,18.20
2017-06-14T07:07:56.497Z,18.15
2017-06-14T07:08:58.383Z,18.08
2017-06-14T07:10:00.269Z,18.00
2017-06-14T07:11:02.145Z,17.99
2017-06-14T07:12:03.968Z,18.00
2017-06-14T07:13:05.782Z,17.89
2017-06-14T07:14:07.669Z,17.92
2017-06-14T07:15:09.557Z,17.95
2017-06-14T07:16:11.421Z,17.81
2017-06-14T07:17:25.566Z,17.93
2017-06-14T07:18:27.454Z,17.93
2017-06-14T07:19:29.329Z,17.92
2017-06-14T07:20:31.187Z,17.86
2017-06-14T07:21:33.013Z,17.74
2017-06-14T07:22:34.843Z,17.79
2017-06-14T07:23:36.731Z,17.92
2017-06-14T07:24:38.600Z,18.05
2017-06-14T07:25:40.495Z,18.08
2017-06-14T07:26:54.660Z,18.17
2017-06-14T07:27:56.547Z,18.26
2017-06-14T07:28:58.438Z,18.42
2017-06-14T07:30:00.326Z,18.47
2017-06-14T07:31:02.156Z,18.60
2017-06-14T07:32:03.991Z,18.66
2017-06-14T07:33:05.876Z,18.80
2017-06-14T07:34:07.742Z,18.73
2017-06-14T07:35:09.611Z,18.57
2017-06-14T07:36:23.778Z,18.36
2017-06-14T07:37:25.665Z,18.33
2017-06-14T07:38:27.528Z,18.21
2017-06-14T07:39:29.398Z,18.29
2017-06-14T07:40:31.210Z,18.36
2017-06-14T07:41:33.038Z,18.45
2017-06-14T07:42:34.908Z,18.47
2017-06-14T07:43:36.796Z,18.41
2017-06-14T07:44:38.665Z,18.33
2017-06-14T07:45:52.831Z,18.23
2017-06-14T07:46:54.717Z,18.35
2017-06-14T07:47:56.582Z,18.58
2017-06-14T07:48:58.450Z,18.70
2017-06-14T07:50:00.278Z,18.76
2017-06-14T07:51:02.089Z,18.76
2017-06-14T07:52:03.984Z,18.75
2017-06-14T07:53:05.853Z,18.72
2017-06-14T07:54:07.739Z,18.75
2017-06-14T07:55:21.878Z,18.88
2017-06-14T07:56:23.748Z,18.98
2017-06-14T07:57:25.636Z,19.08
2017-06-14T07:58:27.525Z,19.18
2017-06-14T07:59:29.334Z,19.13
2017-06-14T08:00:31.164Z,19.19
2017-06-14T08:01:33.053Z,19.11
2017-06-14T08:02:34.922Z,19.23
2017-06-14T08:03:36.816Z,19.23
2017-06-14T08:04:50.984Z,19.37
2017-06-14T08:05:52.876Z,19.43
2017-06-14T08:06:54.766Z,19.39
2017-06-14T08:07:56.655Z,19.63
2017-06-14T08:08:58.490Z,19.88
2017-06-14T08:10:00.318Z,20.13
2017-06-14T08:11:02.185Z,20.20
2017-06-14T08:12:04.058Z,20.20
2017-06-14T08:13:05.946Z,20.20
2017-06-14T08:14:20.111Z,20.01
2017-06-14T08:15:21.975Z,19.77
2017-06-14T08:16:23.847Z,19.76
2017-06-14T08:17:25.737Z,19.92
2017-06-14T08:18:27.545Z,19.86
2017-06-14T08:19:29.380Z,19.98
2017-06-14T08:20:31.234Z,19.95
2017-06-14T08:21:33.077Z,19.96
2017-06-14T08:22:34.882Z,20.11
2017-06-14T08:23:49.027Z,20.08
2017-06-14T08:24:50.899Z,20.24
2017-06-14T08:25:52.788Z,20.20
2017-06-14T08:26:54.653Z,20.10
2017-06-14T08:27:56.459Z,20.11
2017-06-14T08:28:58.276Z,20.02
2017-06-14T08:30:00.168Z,20.02
2017-06-14T08:31:02.036Z,19.96
2017-06-14T08:32:03.906Z,19.95
2017-06-14T08:33:18.065Z,19.95
2017-06-14T08:34:19.938Z,19.86
2017-06-14T08:35:21.805Z,19.71
2017-06-14T08:36:23.695Z,19.69
2017-06-14T08:37:25.504Z,19.71
2017-06-14T08:38:27.329Z,19.71
2017-06-14T08:39:29.202Z,19.69
2017-06-14T08:40:31.096Z,19.78
2017-06-14T08:41:32.982Z,19.65
2017-06-14T08:42:47.126Z,19.43
2017-06-14T08:43:48.993Z,19.41
2017-06-14T08:44:50.861Z,19.54
2017-06-14T08:45:52.732Z,19.76
2017-06-14T08:46:54.543Z,20.02
2017-06-14T08:47:56.372Z,20.13
2017-06-14T08:48:58.243Z,20.14
2017-06-14T08:50:00.118Z,20.10
2017-06-14T08:51:01.984Z,20.18
2017-06-14T08:52:16.152Z,20.58
2017-06-14T08:53:18.039Z,20.55
2017-06-14T08:54:19.912Z,20.61
2017-06-14T08:55:21.810Z,20.64
2017-06-14T08:56:23.624Z,20.57
2017-06-14T08:57:25.455Z,20.54
2017-06-14T08:58:27.325Z,20.31
2017-06-14T08:59:29.214Z,20.23
2017-06-14T09:00:31.088Z,20.13
2017-06-14T09:01:46.213Z,20.05
2017-06-14T09:02:48.098Z,20.10
2017-06-14T09:03:50.947Z,20.18
2017-06-14T09:04:35.679Z,20.06
2017-06-14T09:06:03.246Z,20.05
2017-06-14T09:07:05.121Z,20.01
2017-06-14T09:08:06.999Z,20.13
2017-06-14T09:09:08.834Z,20.20
2017-06-14T09:10:10.649Z,20.38
2017-06-14T09:11:12.523Z,20.33
2017-06-14T09:12:14.401Z,20.20
2017-06-14T09:13:16.280Z,20.16
2017-06-14T09:14:30.433Z,20.05
2017-06-14T09:15:32.319Z,20.23
2017-06-14T09:16:34.189Z,20.29
2017-06-14T09:17:36.060Z,20.33
2017-06-14T09:18:37.890Z,20.39
2017-06-14T09:19:39.704Z,20.35
2017-06-14T09:20:41.593Z,20.38
2017-06-14T09:21:43.467Z,20.57
2017-06-14T09:22:45.350Z,20.59
2017-06-14T09:23:59.498Z,20.67
2017-06-14T09:25:01.367Z,20.58
2017-06-14T09:26:03.257Z,20.64
2017-06-14T09:27:05.132Z,20.51
2017-06-14T09:28:06.941Z,20.58
2017-06-14T09:29:08.775Z,20.47
2017-06-14T09:30:10.670Z,20.42
2017-06-14T09:31:12.566Z,20.32
2017-06-14T09:32:14.454Z,20.47
2017-06-14T09:33:28.626Z,20.51
2017-06-14T09:34:30.506Z,20.39
2017-06-14T09:35:32.379Z,20.33
2017-06-14T09:36:34.271Z,20.43
2017-06-14T09:37:36.105Z,20.57
2017-06-14T09:38:37.928Z,20.64
2017-06-14T09:39:39.803Z,20.77
2017-06-14T09:40:41.673Z,20.98
2017-06-14T09:41:43.564Z,21.14
2017-06-14T09:42:57.730Z,21.10
2017-06-14T09:43:59.616Z,21.17
2017-06-14T09:45:01.485Z,21.28
2017-06-14T09:46:03.353Z,21.27
2017-06-14T09:47:05.166Z,21.29
2017-06-14T09:48:07.000Z,21.06
2017-06-14T09:49:08.892Z,20.73
2017-06-14T09:50:10.851Z,20.55
2017-06-14T09:51:12.810Z,20.39
2017-06-14T09:52:26.966Z,20.32
2017-06-14T09:53:28.838Z,20.43
2017-06-14T09:54:30.709Z,20.57
2017-06-14T09:55:32.598Z,20.80
2017-06-14T09:56:34.414Z,21.13
2017-06-14T09:57:36.246Z,21.25
2017-06-14T09:58:38.120Z,21.25
2017-06-14T09:59:40.005Z,21.13
2017-06-14T10:00:41.872Z,21.07
2017-06-14T10:01:56.021Z,20.89
2017-06-14T10:02:57.901Z,20.89
2017-06-14T10:03:59.774Z,20.92
2017-06-14T10:05:01.639Z,21.01
2017-06-14T10:06:03.449Z,21.03
2017-06-14T10:07:05.259Z,21.03
2017-06-14T10:08:07.126Z,21.03
2017-06-14T10:09:09.000Z,21.01
2017-06-14T10:10:10.872Z,21.13
2017-06-14T10:11:25.043Z,21.10
2017-06-14T10:12:26.925Z,21.21
2017-06-14T10:13:28.804Z,21.29
2017-06-14T10:14:30.673Z,21.29
2017-06-14T10:15:32.483Z,21.31
2017-06-14T10:16:34.291Z,21.16
2017-06-14T10:17:36.166Z,21.28
2017-06-14T10:18:38.054Z,21.24
2017-06-14T10:19:39.927Z,21.44
2017-06-14T10:20:54.070Z,21.34
2017-06-14T10:21:55.963Z,21.38
2017-06-14T10:22:57.849Z,21.24
2017-06-14T10:23:59.719Z,21.25
2017-06-14T10:25:01.534Z,21.37
2017-06-14T10:26:03.361Z,21.38
2017-06-14T10:27:05.233Z,21.38
2017-06-14T10:28:07.105Z,21.50
2017-06-14T10:29:08.991Z,21.42
2017-06-14T10:30:23.137Z,20.97
2017-06-14T10:31:25.000Z,20.89
2017-06-14T10:32:26.871Z,20.74
2017-06-14T10:33:28.738Z,20.73
2017-06-14T10:34:30.548Z,20.72
2017-06-14T10:35:32.354Z,21.03
2017-06-14T10:36:34.224Z,21.14
2017-06-14T10:37:36.095Z,21.29
2017-06-14T10:38:37.985Z,21.34
2017-06-14T10:39:52.148Z,21.44
2017-06-14T10:40:54.015Z,21.47
2017-06-14T10:41:55.890Z,21.64
2017-06-14T10:42:57.777Z,21.72
2017-06-14T10:43:59.593Z,21.82
2017-06-14T10:45:01.400Z,22.07
2017-06-14T10:46:03.293Z,22.06
2017-06-14T10:47:05.188Z,22.05
2017-06-14T10:48:07.072Z,21.75
2017-06-14T10:49:21.222Z,21.67
2017-06-14T10:50:23.109Z,21.56
2017-06-14T10:51:24.989Z,21.53
2017-06-14T10:52:26.873Z,21.58
2017-06-14T10:53:28.684Z,21.64
2017-06-14T10:54:30.519Z,21.61
2017-06-14T10:55:32.387Z,21.49
2017-06-14T10:56:34.280Z,21.32
2017-06-14T10:57:36.171Z,21.13
2017-06-14T10:58:50.340Z,21.13
2017-06-14T10:59:52.205Z,21.10
2017-06-14T11:00:54.068Z,21.12
2017-06-14T11:01:55.967Z,21.22
2017-06-14T11:02:57.796Z,21.38
2017-06-14T11:03:59.606Z,21.52
2017-06-14T11:05:01.477Z,21.49
2017-06-14T11:06:03.347Z,21.37
2017-06-14T11:07:05.216Z,21.38
2017-06-14T11:08:19.381Z,21.56
2017-06-14T11:09:21.248Z,21.80
2017-06-14T11:10:23.122Z,21.77
2017-06-14T11:11:24.993Z,21.96
2017-06-14T11:12:26.797Z,21.75
2017-06-14T11:13:28.612Z,21.67
2017-06-14T11:14:30.510Z,21.47
2017-06-14T11:15:32.399Z,21.56
2017-06-14T11:16:34.288Z,21.52
2017-06-14T11:17:48.428Z,21.34
2017-06-14T11:18:50.298Z,21.46
2017-06-14T11:19:52.167Z,21.64
2017-06-14T11:20:54.037Z,21.74
2017-06-14T11:21:55.866Z,21.71
2017-06-14T11:22:57.679Z,21.65
2017-06-14T11:23:59.576Z,21.59
2017-06-14T11:25:01.465Z,21.74
2017-06-14T11:26:03.359Z,21.71
2017-06-14T11:27:17.493Z,21.62
2017-06-14T11:28:19.378Z,21.56
2017-06-14T11:29:21.247Z,21.52
2017-06-14T11:30:23.139Z,21.52
2017-06-14T11:31:24.951Z,21.53
2017-06-14T11:32:26.779Z,21.72
2017-06-14T11:33:28.649Z,21.77
2017-06-14T11:34:30.525Z,21.79
2017-06-14T11:35:32.416Z,21.79
2017-06-14T11:36:46.584Z,21.91
2017-06-14T11:37:48.474Z,21.94
2017-06-14T11:38:50.366Z,21.79
2017-06-14T11:39:52.235Z,21.74
2017-06-14T11:40:54.045Z,21.58
2017-06-14T11:41:55.873Z,21.50
2017-06-14T11:42:57.745Z,21.54
2017-06-14T11:43:59.617Z,21.56
2017-06-14T11:45:01.506Z,21.40
2017-06-14T11:46:15.668Z,21.27
2017-06-14T11:47:17.534Z,21.16
2017-06-14T11:48:19.407Z,21.13
2017-06-14T11:49:21.271Z,21.14
2017-06-14T11:50:23.085Z,21.17
2017-06-14T11:51:24.893Z,21.14
2017-06-14T11:52:26.760Z,21.14
2017-06-14T11:53:28.630Z,21.06
2017-06-14T11:54:30.501Z,21.01
2017-06-14T11:55:44.664Z,20.89
2017-06-14T11:56:46.537Z,20.89
2017-06-14T11:57:48.427Z,20.95
2017-06-14T11:58:50.298Z,20.98
2017-06-14T11:59:52.102Z,21.03
2017-06-14T12:00:53.915Z,21.09
2017-06-14T12:01:55.787Z,21.14
2017-06-14T12:02:57.672Z,21.17
2017-06-14T12:03:59.538Z,21.13
2017-06-14T12:05:13.736Z,21.14
2017-06-14T12:06:15.601Z,21.28
2017-06-14T12:07:17.471Z,21.44
2017-06-14T12:08:19.355Z,21.56
2017-06-14T12:09:21.170Z,21.50
2017-06-14T12:10:22.998Z,21.37
2017-06-14T12:11:24.870Z,21.25
2017-06-14T12:12:26.741Z,21.37
2017-06-14T12:13:28.630Z,21.38
2017-06-14T12:14:42.791Z,21.42
2017-06-14T12:15:44.658Z,21.52
2017-06-14T12:16:46.529Z,21.58
2017-06-14T12:17:48.423Z,21.54
2017-06-14T12:18:50.247Z,21.54
2017-06-14T12:19:52.057Z,21.50
2017-06-14T12:20:53.950Z,21.53
2017-06-14T12:21:55.835Z,21.43
2017-06-14T12:22:57.704Z,21.27
2017-06-14T12:24:11.855Z,21.16
2017-06-14T12:25:13.752Z,21.19
2017-06-14T12:26:15.629Z,21.28
2017-06-14T12:27:17.515Z,21.21
2017-06-14T12:28:19.343Z,21.25
2017-06-14T12:29:21.155Z,21.25
2017-06-14T12:30:23.045Z,21.35
2017-06-14T12:31:24.916Z,21.54
2017-06-14T12:32:26.785Z,21.61
2017-06-14T12:33:40.932Z,21.72
2017-06-14T12:34:42.817Z,21.99
2017-06-14T12:35:44.687Z,22.06
2017-06-14T12:36:46.578Z,22.22
2017-06-14T12:37:48.387Z,22.30
2017-06-14T12:38:50.196Z,22.22
2017-06-14T12:39:52.085Z,22.18
2017-06-14T12:40:53.955Z,22.05
2017-06-14T12:41:56.415Z,22.07
2017-06-14T12:43:10.547Z,22.05
2017-06-14T12:44:12.469Z,22.10
2017-06-14T12:45:14.338Z,22.15
2017-06-14T12:46:16.227Z,22.03
2017-06-14T12:47:18.062Z,22.14
2017-06-14T12:48:19.872Z,22.20
2017-06-14T12:49:21.779Z,22.18
2017-06-14T12:50:23.671Z,22.24
2017-06-14T12:51:25.560Z,22.24
2017-06-14T12:52:39.727Z,22.15
2017-06-14T12:53:41.598Z,22.06
2017-06-14T12:54:43.462Z,22.05
2017-06-14T12:55:45.343Z,22.05
2017-06-14T12:56:47.163Z,22.05
2017-06-14T12:57:48.977Z,22.09
2017-06-14T12:58:50.870Z,22.06
2017-06-14T12:59:52.762Z,21.92
2017-06-14T13:00:54.652Z,21.77
2017-06-14T13:02:08.816Z,21.75
2017-06-14T13:03:10.751Z,21.71
2017-06-14T13:04:12.682Z,21.80
2017-06-14T13:05:14.550Z,21.75
2017-06-14T13:06:16.359Z,21.75
2017-06-14T13:07:18.190Z,21.82
2017-06-14T13:08:20.085Z,21.75
2017-06-14T13:09:21.971Z,21.83
2017-06-14T13:10:23.835Z,21.84
2017-06-14T13:11:37.982Z,21.86
2017-06-14T13:12:39.852Z,22.06
2017-06-14T13:13:41.741Z,21.99
2017-06-14T13:14:43.612Z,22.03
2017-06-14T13:15:45.436Z,21.99
2017-06-14T13:16:47.247Z,22.02
2017-06-14T13:17:49.147Z,22.05
2017-06-14T13:18:51.036Z,22.06
2017-06-14T13:19:52.904Z,22.09
2017-06-14T13:21:07.068Z,21.94
2017-06-14T13:22:08.957Z,21.80
2017-06-14T13:23:10.830Z,21.86
2017-06-14T13:24:12.725Z,21.82
2017-06-14T13:25:14.550Z,21.84
2017-06-14T13:26:16.361Z,22.00
2017-06-14T13:27:18.229Z,22.06
2017-06-14T13:28:20.096Z,22.25
2017-06-14T13:29:21.967Z,22.36
2017-06-14T13:30:36.132Z,22.46
2017-06-14T13:31:38.000Z,22.54
2017-06-14T13:32:39.869Z,22.58
2017-06-14T13:33:41.752Z,22.45
2017-06-14T13:34:43.567Z,22.47